sensor_id;sensor_type;location;lat;lon;timestamp;P1;durP1;ratioP1;P2;durP2;ratioP2
20462;SDS011;10390;53.566;9.980;2023-02-03T00:01:58;6.10;;;4.40;;
20462;SDS011;10390;53.566;9.980;2023-02-03T00:04:24;6.10;;;3.85;;
20462;SDS011;10390;53.566;9.980;2023-02-03T00:06:49;6.70;;;4.60;;
20462;SDS011;10390;53.566;9.980;2023-02-03T00:09:15;7.57;;;4.70;;
20462;SDS011;10390;53.566;9.980;2023-02-03T00:11:41;7.03;;;4.20;;
20462;SDS011;10390;53.566;9.980;2023-02-03T00:14:07;7.18;;;4.53;;
20462;SDS011;10390;53.566;9.980;2023-02-03T00:16:33;7.88;;;4.85;;
20462;SDS011;10390;53.566;9.980;2023-02-03T00:18:59;5.88;;;4.13;;
20462;SDS011;10390;53.566;9.980;2023-02-03T00:21:24;7.60;;;4.60;;
20462;SDS011;10390;53.566;9.980;2023-02-03T00:23:50;7.60;;;4.60;;
20462;SDS011;10390;53.566;9.980;2023-02-03T00:26:16;7.28;;;5.15;;
20462;SDS011;10390;53.566;9.980;2023-02-03T00:28:42;7.85;;;4.95;;
20462;SDS011;10390;53.566;9.980;2023-02-03T00:31:17;6.90;;;4.63;;
20462;SDS011;10390;53.566;9.980;2023-02-03T00:33:44;7.55;;;4.78;;
20462;SDS011;10390;53.566;9.980;2023-02-03T00:36:10;6.97;;;4.20;;
20462;SDS011;10390;53.566;9.980;2023-02-03T00:38:36;6.88;;;4.68;;
20462;SDS011;10390;53.566;9.980;2023-02-03T00:41:02;6.38;;;4.65;;
20462;SDS011;10390;53.566;9.980;2023-02-03T00:43:27;7.15;;;4.47;;
20462;SDS011;10390;53.566;9.980;2023-02-03T00:45:53;6.30;;;4.20;;
20462;SDS011;10390;53.566;9.980;2023-02-03T00:48:18;5.93;;;4.25;;
20462;SDS011;10390;53.566;9.980;2023-02-03T00:50:47;6.93;;;4.38;;
20462;SDS011;10390;53.566;9.980;2023-02-03T00:53:13;7.35;;;4.43;;
20462;SDS011;10390;53.566;9.980;2023-02-03T00:55:39;6.07;;;3.97;;
20462;SDS011;10390;53.566;9.980;2023-02-03T00:58:06;6.10;;;4.35;;
20462;SDS011;10390;53.566;9.980;2023-02-03T01:00:32;5.82;;;4.10;;
20462;SDS011;10390;53.566;9.980;2023-02-03T01:02:57;6.68;;;4.40;;
20462;SDS011;10390;53.566;9.980;2023-02-03T01:05:23;7.60;;;4.20;;
20462;SDS011;10390;53.566;9.980;2023-02-03T01:07:48;6.40;;;4.15;;
20462;SDS011;10390;53.566;9.980;2023-02-03T01:10:14;6.82;;;4.20;;
20462;SDS011;10390;53.566;9.980;2023-02-03T01:12:40;6.15;;;4.20;;
20462;SDS011;10390;53.566;9.980;2023-02-03T01:15:05;6.22;;;4.13;;
20462;SDS011;10390;53.566;9.980;2023-02-03T01:17:31;6.38;;;4.40;;
20462;SDS011;10390;53.566;9.980;2023-02-03T01:19:57;7.68;;;4.70;;
20462;SDS011;10390;53.566;9.980;2023-02-03T01:22:23;7.55;;;4.85;;
20462;SDS011;10390;53.566;9.980;2023-02-03T01:24:48;7.45;;;4.20;;
20462;SDS011;10390;53.566;9.980;2023-02-03T01:27:14;7.25;;;4.82;;
20462;SDS011;10390;53.566;9.980;2023-02-03T01:29:39;6.93;;;4.45;;
20462;SDS011;10390;53.566;9.980;2023-02-03T01:32:05;7.10;;;4.78;;
20462;SDS011;10390;53.566;9.980;2023-02-03T01:34:31;7.10;;;4.65;;
20462;SDS011;10390;53.566;9.980;2023-02-03T01:36:56;6.57;;;4.35;;
20462;SDS011;10390;53.566;9.980;2023-02-03T01:39:22;8.25;;;4.90;;
20462;SDS011;10390;53.566;9.980;2023-02-03T01:41:47;6.75;;;4.47;;
20462;SDS011;10390;53.566;9.980;2023-02-03T01:47:29;6.93;;;4.25;;
20462;SDS011;10390;53.566;9.980;2023-02-03T01:52:25;5.38;;;3.90;;
20462;SDS011;10390;53.566;9.980;2023-02-03T01:54:52;6.88;;;4.40;;
20462;SDS011;10390;53.566;9.980;2023-02-03T01:57:22;6.30;;;4.25;;
20462;SDS011;10390;53.566;9.980;2023-02-03T01:59:51;5.93;;;4.10;;
20462;SDS011;10390;53.566;9.980;2023-02-03T02:02:21;6.25;;;3.95;;
20462;SDS011;10390;53.566;9.980;2023-02-03T02:05:05;7.05;;;4.40;;
20462;SDS011;10390;53.566;9.980;2023-02-03T02:07:32;6.95;;;4.18;;
20462;SDS011;10390;53.566;9.980;2023-02-03T02:10:00;5.97;;;3.80;;
20462;SDS011;10390;53.566;9.980;2023-02-03T02:12:27;5.97;;;3.55;;
20462;SDS011;10390;53.566;9.980;2023-02-03T02:14:52;6.82;;;4.00;;
20462;SDS011;10390;53.566;9.980;2023-02-03T02:29:25;6.07;;;4.20;;
20462;SDS011;10390;53.566;9.980;2023-02-03T02:37:00;6.78;;;4.00;;
20462;SDS011;10390;53.566;9.980;2023-02-03T02:39:43;6.55;;;4.00;;
20462;SDS011;10390;53.566;9.980;2023-02-03T02:42:35;5.82;;;3.92;;
20462;SDS011;10390;53.566;9.980;2023-02-03T02:45:16;6.00;;;3.60;;
20462;SDS011;10390;53.566;9.980;2023-02-03T02:47:50;5.60;;;3.40;;
20462;SDS011;10390;53.566;9.980;2023-02-03T02:50:24;5.72;;;3.60;;
20462;SDS011;10390;53.566;9.980;2023-02-03T02:52:52;5.15;;;3.30;;
20462;SDS011;10390;53.566;9.980;2023-02-03T02:55:20;5.90;;;3.55;;
20462;SDS011;10390;53.566;9.980;2023-02-03T02:57:52;5.88;;;3.80;;
20462;SDS011;10390;53.566;9.980;2023-02-03T03:00:19;6.45;;;3.97;;
20462;SDS011;10390;53.566;9.980;2023-02-03T03:02:46;5.65;;;3.60;;
20462;SDS011;10390;53.566;9.980;2023-02-03T03:05:12;6.00;;;3.60;;
20462;SDS011;10390;53.566;9.980;2023-02-03T03:07:40;5.80;;;3.60;;
20462;SDS011;10390;53.566;9.980;2023-02-03T03:10:12;5.35;;;3.50;;
20462;SDS011;10390;53.566;9.980;2023-02-03T03:12:46;5.20;;;3.33;;
20462;SDS011;10390;53.566;9.980;2023-02-03T03:15:18;6.05;;;3.70;;
20462;SDS011;10390;53.566;9.980;2023-02-03T03:17:50;7.03;;;3.85;;
20462;SDS011;10390;53.566;9.980;2023-02-03T03:20:27;6.07;;;3.38;;
20462;SDS011;10390;53.566;9.980;2023-02-03T03:23:00;7.07;;;3.97;;
20462;SDS011;10390;53.566;9.980;2023-02-03T03:25:33;5.88;;;3.50;;
20462;SDS011;10390;53.566;9.980;2023-02-03T03:28:07;6.05;;;3.50;;
20462;SDS011;10390;53.566;9.980;2023-02-03T03:30:37;4.55;;;3.20;;
20462;SDS011;10390;53.566;9.980;2023-02-03T03:33:03;5.15;;;3.63;;
20462;SDS011;10390;53.566;9.980;2023-02-03T03:35:32;6.07;;;3.75;;
20462;SDS011;10390;53.566;9.980;2023-02-03T03:38:31;5.45;;;3.10;;
20462;SDS011;10390;53.566;9.980;2023-02-03T03:41:12;5.65;;;3.40;;
20462;SDS011;10390;53.566;9.980;2023-02-03T03:43:49;6.43;;;3.95;;
20462;SDS011;10390;53.566;9.980;2023-02-03T03:46:19;5.32;;;3.33;;
20462;SDS011;10390;53.566;9.980;2023-02-03T03:48:50;6.68;;;3.30;;
20462;SDS011;10390;53.566;9.980;2023-02-03T03:51:35;4.60;;;2.88;;
20462;SDS011;10390;53.566;9.980;2023-02-03T03:54:09;5.47;;;3.13;;
20462;SDS011;10390;53.566;9.980;2023-02-03T03:57:21;5.07;;;3.08;;
20462;SDS011;10390;53.566;9.980;2023-02-03T03:59:28;5.43;;;3.25;;
20462;SDS011;10390;53.566;9.980;2023-02-03T04:01:58;5.32;;;3.10;;
20462;SDS011;10390;53.566;9.980;2023-02-03T04:04:28;4.70;;;3.25;;
20462;SDS011;10390;53.566;9.980;2023-02-03T04:06:55;5.13;;;3.10;;
20462;SDS011;10390;53.566;9.980;2023-02-03T04:09:21;4.80;;;3.10;;
20462;SDS011;10390;53.566;9.980;2023-02-03T04:11:47;5.15;;;3.35;;
20462;SDS011;10390;53.566;9.980;2023-02-03T04:14:25;5.25;;;3.28;;
20462;SDS011;10390;53.566;9.980;2023-02-03T04:16:51;5.15;;;3.40;;
20462;SDS011;10390;53.566;9.980;2023-02-03T04:19:17;5.82;;;3.30;;
20462;SDS011;10390;53.566;9.980;2023-02-03T04:21:43;4.25;;;3.08;;
20462;SDS011;10390;53.566;9.980;2023-02-03T04:24:08;5.28;;;3.13;;
20462;SDS011;10390;53.566;9.980;2023-02-03T04:26:34;4.88;;;3.33;;
20462;SDS011;10390;53.566;9.980;2023-02-03T04:28:59;4.07;;;3.00;;
20462;SDS011;10390;53.566;9.980;2023-02-03T04:31:25;5.13;;;3.75;;
20462;SDS011;10390;53.566;9.980;2023-02-03T04:33:51;5.22;;;3.28;;
20462;SDS011;10390;53.566;9.980;2023-02-03T04:36:16;5.28;;;3.00;;
20462;SDS011;10390;53.566;9.980;2023-02-03T04:38:42;4.63;;;2.90;;
20462;SDS011;10390;53.566;9.980;2023-02-03T04:41:07;5.03;;;3.20;;
20462;SDS011;10390;53.566;9.980;2023-02-03T04:43:33;5.28;;;3.08;;
20462;SDS011;10390;53.566;9.980;2023-02-03T04:45:59;4.57;;;3.05;;
20462;SDS011;10390;53.566;9.980;2023-02-03T04:48:24;5.82;;;3.50;;
20462;SDS011;10390;53.566;9.980;2023-02-03T04:50:50;5.03;;;3.00;;
20462;SDS011;10390;53.566;9.980;2023-02-03T04:53:19;5.00;;;3.28;;
20462;SDS011;10390;53.566;9.980;2023-02-03T04:55:45;4.93;;;3.30;;
20462;SDS011;10390;53.566;9.980;2023-02-03T04:58:12;4.38;;;3.08;;
20462;SDS011;10390;53.566;9.980;2023-02-03T05:00:38;5.15;;;3.35;;
20462;SDS011;10390;53.566;9.980;2023-02-03T05:03:03;4.60;;;3.17;;
20462;SDS011;10390;53.566;9.980;2023-02-03T05:05:29;4.80;;;3.08;;
20462;SDS011;10390;53.566;9.980;2023-02-03T05:07:54;4.75;;;3.30;;
20462;SDS011;10390;53.566;9.980;2023-02-03T05:10:20;4.85;;;3.30;;
20462;SDS011;10390;53.566;9.980;2023-02-03T05:12:46;5.85;;;3.60;;
20462;SDS011;10390;53.566;9.980;2023-02-03T05:15:11;4.82;;;3.35;;
20462;SDS011;10390;53.566;9.980;2023-02-03T05:17:37;5.57;;;3.55;;
20462;SDS011;10390;53.566;9.980;2023-02-03T05:20:03;4.93;;;3.00;;
20462;SDS011;10390;53.566;9.980;2023-02-03T05:22:29;5.60;;;3.28;;
20462;SDS011;10390;53.566;9.980;2023-02-03T05:24:54;4.50;;;3.22;;
20462;SDS011;10390;53.566;9.980;2023-02-03T05:27:20;4.78;;;3.45;;
20462;SDS011;10390;53.566;9.980;2023-02-03T05:29:45;5.65;;;3.75;;
20462;SDS011;10390;53.566;9.980;2023-02-03T05:32:11;6.10;;;3.38;;
20462;SDS011;10390;53.566;9.980;2023-02-03T05:34:37;5.32;;;3.53;;
20462;SDS011;10390;53.566;9.980;2023-02-03T05:37:02;5.40;;;3.30;;
20462;SDS011;10390;53.566;9.980;2023-02-03T05:39:28;4.93;;;3.10;;
20462;SDS011;10390;53.566;9.980;2023-02-03T05:41:53;6.18;;;3.80;;
20462;SDS011;10390;53.566;9.980;2023-02-03T05:44:20;5.82;;;3.80;;
20462;SDS011;10390;53.566;9.980;2023-02-03T05:46:47;5.88;;;3.50;;
20462;SDS011;10390;53.566;9.980;2023-02-03T05:49:14;5.53;;;3.53;;
20462;SDS011;10390;53.566;9.980;2023-02-03T05:51:39;4.63;;;3.25;;
20462;SDS011;10390;53.566;9.980;2023-02-03T05:54:05;5.55;;;3.95;;
20462;SDS011;10390;53.566;9.980;2023-02-03T05:56:31;5.50;;;3.40;;
20462;SDS011;10390;53.566;9.980;2023-02-03T05:58:57;5.80;;;3.60;;
20462;SDS011;10390;53.566;9.980;2023-02-03T06:01:23;5.70;;;3.50;;
20462;SDS011;10390;53.566;9.980;2023-02-03T06:03:49;6.03;;;3.67;;
20462;SDS011;10390;53.566;9.980;2023-02-03T06:06:14;5.22;;;3.88;;
20462;SDS011;10390;53.566;9.980;2023-02-03T06:08:41;6.03;;;3.88;;
20462;SDS011;10390;53.566;9.980;2023-02-03T06:11:06;5.07;;;3.50;;
20462;SDS011;10390;53.566;9.980;2023-02-03T06:13:32;6.05;;;4.05;;
20462;SDS011;10390;53.566;9.980;2023-02-03T06:15:58;5.75;;;4.00;;
20462;SDS011;10390;53.566;9.980;2023-02-03T06:18:23;6.25;;;3.60;;
20462;SDS011;10390;53.566;9.980;2023-02-03T06:20:49;5.32;;;3.47;;
20462;SDS011;10390;53.566;9.980;2023-02-03T06:23:15;4.95;;;3.47;;
20462;SDS011;10390;53.566;9.980;2023-02-03T06:25:43;5.47;;;3.65;;
20462;SDS011;10390;53.566;9.980;2023-02-03T06:28:09;4.90;;;3.10;;
20462;SDS011;10390;53.566;9.980;2023-02-03T06:30:35;5.35;;;3.20;;
20462;SDS011;10390;53.566;9.980;2023-02-03T06:33:01;5.00;;;2.90;;
20462;SDS011;10390;53.566;9.980;2023-02-03T06:35:26;5.65;;;3.20;;
20462;SDS011;10390;53.566;9.980;2023-02-03T06:37:52;4.50;;;3.00;;
20462;SDS011;10390;53.566;9.980;2023-02-03T06:40:18;5.30;;;3.85;;
20462;SDS011;10390;53.566;9.980;2023-02-03T06:42:44;7.53;;;3.90;;
20462;SDS011;10390;53.566;9.980;2023-02-03T06:45:11;6.05;;;3.53;;
20462;SDS011;10390;53.566;9.980;2023-02-03T06:47:38;5.82;;;3.28;;
20462;SDS011;10390;53.566;9.980;2023-02-03T06:50:05;5.45;;;3.50;;
20462;SDS011;10390;53.566;9.980;2023-02-03T06:52:31;7.03;;;3.50;;
20462;SDS011;10390;53.566;9.980;2023-02-03T06:54:56;6.68;;;3.60;;
20462;SDS011;10390;53.566;9.980;2023-02-03T06:57:22;5.10;;;3.67;;
20462;SDS011;10390;53.566;9.980;2023-02-03T06:59:47;5.40;;;3.33;;
20462;SDS011;10390;53.566;9.980;2023-02-03T07:02:13;6.35;;;3.45;;
20462;SDS011;10390;53.566;9.980;2023-02-03T07:04:39;10.20;;;3.40;;
20462;SDS011;10390;53.566;9.980;2023-02-03T07:07:04;6.88;;;3.38;;
20462;SDS011;10390;53.566;9.980;2023-02-03T07:09:30;5.80;;;3.47;;
20462;SDS011;10390;53.566;9.980;2023-02-03T07:11:55;4.95;;;3.20;;
20462;SDS011;10390;53.566;9.980;2023-02-03T07:14:21;4.93;;;3.25;;
20462;SDS011;10390;53.566;9.980;2023-02-03T07:16:47;7.40;;;3.95;;
20462;SDS011;10390;53.566;9.980;2023-02-03T07:19:12;6.15;;;3.40;;
20462;SDS011;10390;53.566;9.980;2023-02-03T07:21:38;5.43;;;3.70;;
20462;SDS011;10390;53.566;9.980;2023-02-03T07:24:04;5.53;;;3.70;;
20462;SDS011;10390;53.566;9.980;2023-02-03T07:26:29;5.40;;;3.63;;
20462;SDS011;10390;53.566;9.980;2023-02-03T07:28:55;5.05;;;3.67;;
20462;SDS011;10390;53.566;9.980;2023-02-03T07:31:23;5.88;;;3.60;;
20462;SDS011;10390;53.566;9.980;2023-02-03T07:33:49;5.82;;;3.70;;
20462;SDS011;10390;53.566;9.980;2023-02-03T07:36:15;5.97;;;3.90;;
20462;SDS011;10390;53.566;9.980;2023-02-03T07:38:40;5.57;;;4.00;;
20462;SDS011;10390;53.566;9.980;2023-02-03T07:41:06;6.43;;;3.50;;
20462;SDS011;10390;53.566;9.980;2023-02-03T07:43:32;6.32;;;3.40;;
20462;SDS011;10390;53.566;9.980;2023-02-03T07:45:57;4.93;;;3.58;;
20462;SDS011;10390;53.566;9.980;2023-02-03T07:48:23;5.82;;;3.85;;
20462;SDS011;10390;53.566;9.980;2023-02-03T07:50:49;6.05;;;3.70;;
20462;SDS011;10390;53.566;9.980;2023-02-03T07:53:16;7.32;;;3.72;;
20462;SDS011;10390;53.566;9.980;2023-02-03T07:55:42;5.70;;;3.72;;
20462;SDS011;10390;53.566;9.980;2023-02-03T07:58:08;7.15;;;4.00;;
20462;SDS011;10390;53.566;9.980;2023-02-03T08:00:33;6.53;;;4.10;;
20462;SDS011;10390;53.566;9.980;2023-02-03T08:02:59;6.03;;;3.45;;
20462;SDS011;10390;53.566;9.980;2023-02-03T08:05:25;7.10;;;4.30;;
20462;SDS011;10390;53.566;9.980;2023-02-03T08:07:51;6.82;;;3.60;;
20462;SDS011;10390;53.566;9.980;2023-02-03T08:10:17;6.07;;;4.00;;
20462;SDS011;10390;53.566;9.980;2023-02-03T08:12:42;6.05;;;3.80;;
20462;SDS011;10390;53.566;9.980;2023-02-03T08:15:09;6.45;;;3.95;;
20462;SDS011;10390;53.566;9.980;2023-02-03T08:17:35;8.50;;;4.28;;
20462;SDS011;10390;53.566;9.980;2023-02-03T08:20:04;6.78;;;4.43;;
20462;SDS011;10390;53.566;9.980;2023-02-03T08:22:30;7.35;;;3.78;;
20462;SDS011;10390;53.566;9.980;2023-02-03T08:24:56;6.60;;;3.70;;
20462;SDS011;10390;53.566;9.980;2023-02-03T08:27:22;7.47;;;4.15;;
20462;SDS011;10390;53.566;9.980;2023-02-03T08:29:48;6.82;;;4.00;;
20462;SDS011;10390;53.566;9.980;2023-02-03T08:32:14;6.55;;;3.67;;
20462;SDS011;10390;53.566;9.980;2023-02-03T08:34:42;7.15;;;4.20;;
20462;SDS011;10390;53.566;9.980;2023-02-03T08:37:09;7.63;;;3.83;;
20462;SDS011;10390;53.566;9.980;2023-02-03T08:39:36;7.32;;;4.05;;
20462;SDS011;10390;53.566;9.980;2023-02-03T08:42:03;6.93;;;3.60;;
20462;SDS011;10390;53.566;9.980;2023-02-03T08:44:32;8.60;;;4.63;;
20462;SDS011;10390;53.566;9.980;2023-02-03T08:46:58;8.20;;;3.88;;
20462;SDS011;10390;53.566;9.980;2023-02-03T08:49:25;7.60;;;3.97;;
20462;SDS011;10390;53.566;9.980;2023-02-03T08:51:52;6.95;;;3.80;;
20462;SDS011;10390;53.566;9.980;2023-02-03T08:54:19;6.88;;;3.85;;
20462;SDS011;10390;53.566;9.980;2023-02-03T08:56:45;8.70;;;4.35;;
20462;SDS011;10390;53.566;9.980;2023-02-03T08:59:11;7.45;;;3.88;;
20462;SDS011;10390;53.566;9.980;2023-02-03T09:01:38;8.00;;;4.30;;
20462;SDS011;10390;53.566;9.980;2023-02-03T09:04:10;8.73;;;4.20;;
20462;SDS011;10390;53.566;9.980;2023-02-03T09:06:36;6.65;;;4.00;;
20462;SDS011;10390;53.566;9.980;2023-02-03T09:09:02;7.53;;;3.85;;
20462;SDS011;10390;53.566;9.980;2023-02-03T09:11:28;6.68;;;3.92;;
20462;SDS011;10390;53.566;9.980;2023-02-03T09:13:54;6.68;;;3.72;;
20462;SDS011;10390;53.566;9.980;2023-02-03T09:16:21;7.95;;;4.63;;
20462;SDS011;10390;53.566;9.980;2023-02-03T09:18:48;7.10;;;4.18;;
20462;SDS011;10390;53.566;9.980;2023-02-03T09:21:15;8.32;;;3.75;;
20462;SDS011;10390;53.566;9.980;2023-02-03T09:23:42;7.40;;;3.97;;
20462;SDS011;10390;53.566;9.980;2023-02-03T09:26:09;7.50;;;3.70;;
20462;SDS011;10390;53.566;9.980;2023-02-03T09:28:36;7.95;;;3.95;;
20462;SDS011;10390;53.566;9.980;2023-02-03T09:31:03;7.25;;;3.80;;
20462;SDS011;10390;53.566;9.980;2023-02-03T09:33:30;8.75;;;5.40;;
20462;SDS011;10390;53.566;9.980;2023-02-03T09:35:56;7.68;;;4.10;;
20462;SDS011;10390;53.566;9.980;2023-02-03T09:38:23;9.15;;;4.30;;
20462;SDS011;10390;53.566;9.980;2023-02-03T09:40:53;9.10;;;4.65;;
20462;SDS011;10390;53.566;9.980;2023-02-03T09:43:28;8.40;;;4.28;;
20462;SDS011;10390;53.566;9.980;2023-02-03T09:46:11;9.93;;;4.80;;
20462;SDS011;10390;53.566;9.980;2023-02-03T09:48:46;7.97;;;4.25;;
20462;SDS011;10390;53.566;9.980;2023-02-03T09:51:19;9.70;;;4.05;;
20462;SDS011;10390;53.566;9.980;2023-02-03T09:53:49;8.73;;;4.68;;
20462;SDS011;10390;53.566;9.980;2023-02-03T09:56:24;10.93;;;4.72;;
20462;SDS011;10390;53.566;9.980;2023-02-03T09:58:53;7.57;;;3.63;;
20462;SDS011;10390;53.566;9.980;2023-02-03T10:01:19;10.57;;;4.68;;
20462;SDS011;10390;53.566;9.980;2023-02-03T10:06:21;9.10;;;4.40;;
20462;SDS011;10390;53.566;9.980;2023-02-03T10:08:53;8.77;;;4.32;;
20462;SDS011;10390;53.566;9.980;2023-02-03T10:11:50;8.90;;;4.70;;
20462;SDS011;10390;53.566;9.980;2023-02-03T10:20:00;8.70;;;4.72;;
20462;SDS011;10390;53.566;9.980;2023-02-03T10:22:29;10.73;;;5.63;;
20462;SDS011;10390;53.566;9.980;2023-02-03T10:25:02;9.82;;;4.95;;
20462;SDS011;10390;53.566;9.980;2023-02-03T10:27:44;10.32;;;5.25;;
20462;SDS011;10390;53.566;9.980;2023-02-03T10:30:21;10.85;;;5.28;;
20462;SDS011;10390;53.566;9.980;2023-02-03T10:32:56;12.45;;;5.18;;
20462;SDS011;10390;53.566;9.980;2023-02-03T10:35:38;11.30;;;5.05;;
20462;SDS011;10390;53.566;9.980;2023-02-03T10:41:03;12.32;;;5.20;;
20462;SDS011;10390;53.566;9.980;2023-02-03T10:43:29;12.20;;;5.20;;
20462;SDS011;10390;53.566;9.980;2023-02-03T10:46:12;11.90;;;5.47;;
20462;SDS011;10390;53.566;9.980;2023-02-03T10:48:41;11.63;;;5.70;;
20462;SDS011;10390;53.566;9.980;2023-02-03T10:51:18;11.90;;;4.78;;
20462;SDS011;10390;53.566;9.980;2023-02-03T10:53:50;10.80;;;4.97;;
20462;SDS011;10390;53.566;9.980;2023-02-03T10:56:29;11.73;;;5.20;;
20462;SDS011;10390;53.566;9.980;2023-02-03T10:59:03;11.10;;;4.97;;
20462;SDS011;10390;53.566;9.980;2023-02-03T11:01:43;11.23;;;5.00;;
20462;SDS011;10390;53.566;9.980;2023-02-03T11:04:24;13.82;;;5.95;;
20462;SDS011;10390;53.566;9.980;2023-02-03T11:06:59;13.65;;;5.80;;
20462;SDS011;10390;53.566;9.980;2023-02-03T11:09:39;11.20;;;4.80;;
20462;SDS011;10390;53.566;9.980;2023-02-03T11:12:19;11.35;;;4.88;;
20462;SDS011;10390;53.566;9.980;2023-02-03T11:14:48;10.15;;;4.60;;
20462;SDS011;10390;53.566;9.980;2023-02-03T11:19:51;11.10;;;4.53;;
20462;SDS011;10390;53.566;9.980;2023-02-03T11:22:25;10.45;;;5.15;;
20462;SDS011;10390;53.566;9.980;2023-02-03T11:24:56;9.60;;;4.75;;
20462;SDS011;10390;53.566;9.980;2023-02-03T11:27:23;11.77;;;4.80;;
20462;SDS011;10390;53.566;9.980;2023-02-03T11:29:54;13.65;;;4.80;;
20462;SDS011;10390;53.566;9.980;2023-02-03T11:32:39;11.02;;;5.32;;
20462;SDS011;10390;53.566;9.980;2023-02-03T11:37:40;13.32;;;5.07;;
20462;SDS011;10390;53.566;9.980;2023-02-03T11:42:43;11.38;;;5.30;;
20462;SDS011;10390;53.566;9.980;2023-02-03T11:50:14;10.38;;;4.28;;
20462;SDS011;10390;53.566;9.980;2023-02-03T11:52:53;12.45;;;5.00;;
20462;SDS011;10390;53.566;9.980;2023-02-03T11:55:31;13.43;;;5.50;;
20462;SDS011;10390;53.566;9.980;2023-02-03T12:03:53;8.80;;;4.45;;
20462;SDS011;10390;53.566;9.980;2023-02-03T12:25:38;10.63;;;5.00;;
20462;SDS011;10390;53.566;9.980;2023-02-03T12:28:11;12.18;;;4.88;;
20462;SDS011;10390;53.566;9.980;2023-02-03T12:30:42;13.13;;;5.10;;
20462;SDS011;10390;53.566;9.980;2023-02-03T12:33:18;12.50;;;5.25;;
20462;SDS011;10390;53.566;9.980;2023-02-03T12:38:40;11.13;;;4.97;;
20462;SDS011;10390;53.566;9.980;2023-02-03T12:41:12;14.40;;;5.15;;
20462;SDS011;10390;53.566;9.980;2023-02-03T12:43:46;11.15;;;4.53;;
20462;SDS011;10390;53.566;9.980;2023-02-03T12:46:17;10.82;;;4.85;;
20462;SDS011;10390;53.566;9.980;2023-02-03T12:51:42;11.68;;;5.53;;
20462;SDS011;10390;53.566;9.980;2023-02-03T12:54:22;10.23;;;5.03;;
20462;SDS011;10390;53.566;9.980;2023-02-03T12:57:59;10.27;;;5.15;;
20462;SDS011;10390;53.566;9.980;2023-02-03T13:06:10;12.02;;;5.22;;
20462;SDS011;10390;53.566;9.980;2023-02-03T13:08:28;11.05;;;4.50;;
20462;SDS011;10390;53.566;9.980;2023-02-03T13:11:02;9.93;;;4.90;;
20462;SDS011;10390;53.566;9.980;2023-02-03T13:13:55;8.57;;;4.53;;
20462;SDS011;10390;53.566;9.980;2023-02-03T13:16:29;9.93;;;4.60;;
20462;SDS011;10390;53.566;9.980;2023-02-03T13:19:02;11.20;;;4.75;;
20462;SDS011;10390;53.566;9.980;2023-02-03T13:21:32;10.25;;;4.88;;
20462;SDS011;10390;53.566;9.980;2023-02-03T13:23:57;9.20;;;4.90;;
20462;SDS011;10390;53.566;9.980;2023-02-03T13:29:31;10.40;;;4.90;;
20462;SDS011;10390;53.566;9.980;2023-02-03T13:32:24;10.38;;;5.47;;
20462;SDS011;10390;53.566;9.980;2023-02-03T13:38:45;12.27;;;5.18;;
20462;SDS011;10390;53.566;9.980;2023-02-03T13:41:34;12.45;;;5.18;;
20462;SDS011;10390;53.566;9.980;2023-02-03T13:44:22;11.80;;;5.00;;
20462;SDS011;10390;53.566;9.980;2023-02-03T13:46:52;10.85;;;5.22;;
20462;SDS011;10390;53.566;9.980;2023-02-03T13:49:25;13.98;;;5.63;;
20462;SDS011;10390;53.566;9.980;2023-02-03T13:51:52;11.60;;;5.78;;
20462;SDS011;10390;53.566;9.980;2023-02-03T13:57:02;11.48;;;5.13;;
20462;SDS011;10390;53.566;9.980;2023-02-03T13:59:43;11.68;;;5.90;;
20462;SDS011;10390;53.566;9.980;2023-02-03T14:07:33;13.35;;;5.93;;
20462;SDS011;10390;53.566;9.980;2023-02-03T14:10:14;11.82;;;6.13;;
20462;SDS011;10390;53.566;9.980;2023-02-03T14:15:18;12.30;;;6.32;;
20462;SDS011;10390;53.566;9.980;2023-02-03T14:20:33;12.60;;;6.35;;
20462;SDS011;10390;53.566;9.980;2023-02-03T14:23:08;12.45;;;6.32;;
20462;SDS011;10390;53.566;9.980;2023-02-03T14:28:07;13.73;;;6.18;;
20462;SDS011;10390;53.566;9.980;2023-02-03T14:36:24;13.05;;;5.82;;
20462;SDS011;10390;53.566;9.980;2023-02-03T14:38:50;13.35;;;6.00;;
20462;SDS011;10390;53.566;9.980;2023-02-03T14:41:17;11.60;;;5.22;;
20462;SDS011;10390;53.566;9.980;2023-02-03T14:43:50;14.50;;;6.75;;
20462;SDS011;10390;53.566;9.980;2023-02-03T14:49:33;13.40;;;5.90;;
20462;SDS011;10390;53.566;9.980;2023-02-03T14:52:20;13.35;;;6.10;;
20462;SDS011;10390;53.566;9.980;2023-02-03T14:57:47;15.30;;;5.45;;
20462;SDS011;10390;53.566;9.980;2023-02-03T15:08:50;12.35;;;5.07;;
20462;SDS011;10390;53.566;9.980;2023-02-03T15:11:04;10.82;;;5.00;;
20462;SDS011;10390;53.566;9.980;2023-02-03T15:13:45;10.13;;;5.07;;
20462;SDS011;10390;53.566;9.980;2023-02-03T15:16:15;11.55;;;5.28;;
20462;SDS011;10390;53.566;9.980;2023-02-03T15:18:43;11.75;;;4.75;;
20462;SDS011;10390;53.566;9.980;2023-02-03T15:21:15;11.27;;;5.03;;
20462;SDS011;10390;53.566;9.980;2023-02-03T15:23:43;9.98;;;4.93;;
20462;SDS011;10390;53.566;9.980;2023-02-03T15:26:16;11.32;;;5.00;;
20462;SDS011;10390;53.566;9.980;2023-02-03T15:28:55;10.43;;;4.88;;
20462;SDS011;10390;53.566;9.980;2023-02-03T15:34:32;10.68;;;4.65;;
20462;SDS011;10390;53.566;9.980;2023-02-03T15:37:06;9.70;;;4.88;;
20462;SDS011;10390;53.566;9.980;2023-02-03T15:39:39;21.05;;;5.20;;
20462;SDS011;10390;53.566;9.980;2023-02-03T15:42:18;11.77;;;4.68;;
20462;SDS011;10390;53.566;9.980;2023-02-03T15:45:46;11.73;;;4.57;;
20462;SDS011;10390;53.566;9.980;2023-02-03T15:47:47;13.13;;;5.32;;
20462;SDS011;10390;53.566;9.980;2023-02-03T15:52:52;9.48;;;5.05;;
20462;SDS011;10390;53.566;9.980;2023-02-03T15:55:26;14.15;;;4.50;;
20462;SDS011;10390;53.566;9.980;2023-02-03T15:57:54;11.05;;;5.63;;
20462;SDS011;10390;53.566;9.980;2023-02-03T16:02:57;12.40;;;5.07;;
20462;SDS011;10390;53.566;9.980;2023-02-03T16:05:25;11.65;;;4.97;;
20462;SDS011;10390;53.566;9.980;2023-02-03T16:07:53;10.65;;;4.88;;
20462;SDS011;10390;53.566;9.980;2023-02-03T16:10:31;11.35;;;4.50;;
20462;SDS011;10390;53.566;9.980;2023-02-03T16:18:30;9.30;;;4.45;;
20462;SDS011;10390;53.566;9.980;2023-02-03T16:20:59;11.32;;;5.60;;
20462;SDS011;10390;53.566;9.980;2023-02-03T16:23:25;11.45;;;5.32;;
20462;SDS011;10390;53.566;9.980;2023-02-03T16:28:31;14.50;;;6.00;;
20462;SDS011;10390;53.566;9.980;2023-02-03T16:31:17;13.52;;;4.88;;
20462;SDS011;10390;53.566;9.980;2023-02-03T16:34:13;10.73;;;5.05;;
20462;SDS011;10390;53.566;9.980;2023-02-03T16:36:59;13.75;;;5.25;;
20462;SDS011;10390;53.566;9.980;2023-02-03T16:39:44;10.98;;;5.15;;
20462;SDS011;10390;53.566;9.980;2023-02-03T16:42:35;16.67;;;5.35;;
20462;SDS011;10390;53.566;9.980;2023-02-03T16:45:21;13.75;;;5.85;;
20462;SDS011;10390;53.566;9.980;2023-02-03T16:48:07;10.38;;;5.78;;
20462;SDS011;10390;53.566;9.980;2023-02-03T16:50:55;12.40;;;5.32;;
20462;SDS011;10390;53.566;9.980;2023-02-03T16:53:28;14.10;;;5.35;;
20462;SDS011;10390;53.566;9.980;2023-02-03T16:55:57;11.73;;;5.13;;
20462;SDS011;10390;53.566;9.980;2023-02-03T16:58:25;15.55;;;5.72;;
20462;SDS011;10390;53.566;9.980;2023-02-03T17:00:51;13.20;;;6.00;;
20462;SDS011;10390;53.566;9.980;2023-02-03T17:03:19;15.57;;;5.90;;
20462;SDS011;10390;53.566;9.980;2023-02-03T17:05:47;18.95;;;5.72;;
20462;SDS011;10390;53.566;9.980;2023-02-03T17:08:14;19.17;;;6.03;;
20462;SDS011;10390;53.566;9.980;2023-02-03T17:10:41;17.88;;;5.63;;
20462;SDS011;10390;53.566;9.980;2023-02-03T17:13:07;18.05;;;5.88;;
20462;SDS011;10390;53.566;9.980;2023-02-03T17:15:33;16.58;;;5.32;;
20462;SDS011;10390;53.566;9.980;2023-02-03T17:18:03;21.40;;;6.05;;
20462;SDS011;10390;53.566;9.980;2023-02-03T17:20:29;13.50;;;5.47;;
20462;SDS011;10390;53.566;9.980;2023-02-03T17:22:55;16.38;;;5.60;;